createdAt,value
2022-09-24T00:00:03.450Z,0
2022-09-24T00:05:02.994Z,0
2022-09-24T00:10:02.725Z,0
2022-09-24T00:15:02.634Z,0
2022-09-24T00:20:03.264Z,0
2022-09-24T00:25:02.938Z,0
2022-09-24T00:30:03.041Z,0
2022-09-24T00:35:03.490Z,0
2022-09-24T00:40:03.428Z,0
2022-09-24T00:45:03.109Z,0
2022-09-24T00:50:02.680Z,0
2022-09-24T00:55:04.517Z,0
2022-09-24T01:00:03.205Z,0
2022-09-24T01:05:02.732Z,0
2022-09-24T01:10:03.497Z,0
2022-09-24T01:15:03.101Z,0
2022-09-24T01:20:02.707Z,0
2022-09-24T01:25:03.439Z,0
2022-09-24T01:30:03.125Z,0
2022-09-24T01:35:02.708Z,0
2022-09-24T01:40:03.368Z,0
2022-09-24T01:45:03.241Z,0
2022-09-24T01:50:02.258Z,0
2022-09-24T01:55:04.389Z,0
2022-09-24T02:00:02.828Z,0
2022-09-24T02:05:02.470Z,0
2022-09-24T02:10:03.180Z,0
2022-09-24T02:15:02.816Z,0
2022-09-24T02:20:02.517Z,0
2022-09-24T02:25:03.071Z,0
2022-09-24T02:30:02.708Z,0
2022-09-24T02:35:02.439Z,0
2022-09-24T02:40:03.071Z,0
2022-09-24T02:45:02.757Z,0
2022-09-24T02:50:02.499Z,0
2022-09-24T02:55:04.513Z,0
2022-09-24T03:00:02.729Z,0
2022-09-24T03:05:02.374Z,0
2022-09-24T03:10:02.256Z,0
2022-09-24T03:15:03.241Z,0
2022-09-24T03:20:02.859Z,0
2022-09-24T03:25:02.490Z,0
2022-09-24T03:30:03.124Z,0
2022-09-24T03:35:02.714Z,0
2022-09-24T03:40:02.586Z,0
2022-09-24T03:45:02.263Z,0
2022-09-24T03:50:03.183Z,0
2022-09-24T04:00:02.720Z,0
2022-09-24T04:05:03.102Z,0
2022-09-24T04:10:02.748Z,0
2022-09-24T04:15:02.419Z,0
2022-09-24T04:20:02.234Z,0.11
2022-09-24T04:25:03.049Z,0.68
2022-09-24T04:30:02.622Z,1.81
2022-09-24T04:35:08.061Z,4.87
2022-09-24T04:40:02.941Z,5
2022-09-24T04:45:03.381Z,13.33
2022-09-24T04:50:03.042Z,30
2022-09-24T04:55:03.447Z,56.67
2022-09-24T05:00:03.379Z,91.67
2022-09-24T05:05:02.968Z,135
2022-09-24T05:10:02.728Z,180
2022-09-24T05:15:03.298Z,220
2022-09-24T05:20:02.962Z,268.33
2022-09-24T05:25:02.628Z,321.67
2022-09-24T05:30:03.254Z,420
2022-09-24T05:35:03.025Z,530
2022-09-24T05:40:03.480Z,620
2022-09-24T05:45:03.158Z,696.67
2022-09-24T05:50:02.724Z,748.33
2022-09-24T05:55:04.371Z,828.33
2022-09-24T06:00:03.000Z,913.33
2022-09-24T06:05:02.779Z,1011.67
2022-09-24T06:10:03.507Z,1066.67
2022-09-24T06:15:03.156Z,1110
2022-09-24T06:20:02.803Z,1210
2022-09-24T06:25:03.331Z,1410
2022-09-24T06:30:03.133Z,1606.67
2022-09-24T06:35:02.342Z,2031.67
2022-09-24T06:40:03.397Z,3413.33
2022-09-24T06:45:03.113Z,4155
2022-09-24T06:50:02.513Z,3296.67
2022-09-24T06:55:04.060Z,3013.33
2022-09-24T07:00:02.826Z,4223.33
2022-09-24T07:05:03.463Z,3281.67
2022-09-24T07:10:03.107Z,3741.67
2022-09-24T07:15:02.788Z,9323.33
2022-09-24T07:20:03.652Z,7768.33
2022-09-24T07:25:03.246Z,5763.33
2022-09-24T07:30:02.884Z,4923.33
2022-09-24T07:35:03.464Z,5306.67
2022-09-24T07:40:03.097Z,6480
2022-09-24T07:45:02.650Z,9203.33
2022-09-24T07:50:03.262Z,5795
2022-09-24T07:55:03.756Z,5821.67
2022-09-24T08:00:02.515Z,8478.33
2022-09-24T08:05:02.881Z,11865
2022-09-24T08:10:02.516Z,12320
2022-09-24T08:15:03.608Z,13366.67
2022-09-24T08:20:02.824Z,27883.33
2022-09-24T08:25:02.490Z,31603.33
2022-09-24T08:30:03.171Z,27376.67
2022-09-24T08:35:03.061Z,28340
2022-09-24T08:40:02.729Z,13028.33
2022-09-24T08:45:02.415Z,10338.33
2022-09-24T08:50:02.998Z,10911.67
2022-09-24T08:55:04.017Z,29456.67
2022-09-24T09:00:02.670Z,38746.67
2022-09-24T09:05:03.217Z,40113.33
2022-09-24T09:10:02.851Z,37546.67
2022-09-24T09:15:02.566Z,42290
2022-09-24T09:20:03.343Z,12716.67
2022-09-24T09:25:04.139Z,12368.33
2022-09-24T09:30:02.814Z,12413.33
2022-09-24T09:35:03.391Z,12066.67
2022-09-24T09:40:03.042Z,10453.33
2022-09-24T09:45:02.711Z,10841.67
2022-09-24T09:50:03.284Z,11530
2022-09-24T09:55:04.176Z,12376.67
2022-09-24T10:00:02.665Z,13238.33
2022-09-24T10:05:03.290Z,31016.67
2022-09-24T10:10:03.010Z,42733.33
2022-09-24T10:15:03.648Z,46583.33
2022-09-24T10:20:03.458Z,58570.94
2022-09-24T10:25:03.160Z,48916.67
2022-09-24T10:30:02.933Z,42150
2022-09-24T10:35:03.506Z,43756.67
2022-09-24T10:40:03.200Z,43250
2022-09-24T10:45:02.866Z,40856.67
2022-09-24T10:50:03.648Z,38886.67
2022-09-24T10:55:04.004Z,37366.67
2022-09-24T11:00:03.130Z,38203.33
2022-09-24T11:05:02.549Z,33290
2022-09-24T11:10:03.190Z,38786.67
2022-09-24T11:20:02.640Z,36770
2022-09-24T11:25:03.279Z,36116.67
2022-09-24T11:30:02.938Z,39696.67
2022-09-24T11:35:03.577Z,41293.33
2022-09-24T11:40:03.340Z,37806.67
2022-09-24T11:45:03.118Z,38270
2022-09-24T11:50:02.542Z,32833.33
2022-09-24T11:55:04.076Z,32860
2022-09-24T12:00:02.953Z,33523.33
2022-09-24T12:05:02.595Z,28420
2022-09-24T12:10:03.272Z,8496.67
2022-09-24T12:15:02.959Z,7301.67
2022-09-24T12:20:02.581Z,13380
2022-09-24T12:25:03.197Z,13326.67
2022-09-24T12:30:02.876Z,31393.33
2022-09-24T12:35:03.467Z,28516.67
2022-09-24T12:40:03.141Z,30670
2022-09-24T12:45:02.926Z,30643.33
2022-09-24T12:50:02.669Z,27436.67
2022-09-24T12:55:04.605Z,13493.33
2022-09-24T13:00:02.947Z,13121.67
2022-09-24T13:05:02.653Z,13041.67
2022-09-24T13:10:03.246Z,11980
2022-09-24T13:15:03.138Z,11315
2022-09-24T13:20:02.646Z,11108.33
2022-09-24T13:25:03.190Z,10883.33
2022-09-24T13:30:03.089Z,7968.33
2022-09-24T13:35:02.412Z,10986.67
2022-09-24T13:40:03.042Z,8323.33
2022-09-24T13:45:06.252Z,7255
2022-09-24T13:50:02.533Z,6141.67
2022-09-24T13:55:03.828Z,4116.67
2022-09-24T14:00:02.943Z,5218.33
2022-09-24T14:05:02.884Z,6200
2022-09-24T14:10:02.419Z,5146.67
2022-09-24T14:15:02.897Z,4083.33
2022-09-24T14:20:02.641Z,4381.67
2022-09-24T14:25:02.212Z,4545
2022-09-24T14:30:02.906Z,7236.67
2022-09-24T14:35:02.854Z,6388.33
2022-09-24T14:40:02.964Z,6043.33
2022-09-24T14:45:03.191Z,5733.33
2022-09-24T14:50:02.825Z,5626.67
2022-09-24T14:55:04.026Z,5230
2022-09-24T15:00:03.190Z,3910
2022-09-24T15:05:06.076Z,4076.67
2022-09-24T15:10:02.525Z,3098.33
2022-09-24T15:15:03.131Z,3488.33
2022-09-24T15:20:02.796Z,4205
2022-09-24T15:25:02.832Z,4343.33
2022-09-24T15:30:03.229Z,3540
2022-09-24T15:35:02.898Z,3158.33
2022-09-24T15:40:02.614Z,3190
2022-09-24T15:45:02.474Z,2353.33
2022-09-24T15:50:02.891Z,2333.33
2022-09-24T15:55:03.617Z,1575
2022-09-24T16:00:02.313Z,1343.33
2022-09-24T16:05:04.265Z,1216.67
2022-09-24T16:10:02.957Z,1161.67
2022-09-24T16:15:02.708Z,1133.33
2022-09-24T16:20:02.758Z,1160
2022-09-24T16:25:03.011Z,1063.33
2022-09-24T16:30:02.624Z,931.67
2022-09-24T16:35:02.265Z,776.67
2022-09-24T16:40:02.582Z,610
2022-09-24T16:45:02.778Z,345
2022-09-24T16:50:02.940Z,248.33
2022-09-24T16:55:04.457Z,180
2022-09-24T17:00:03.228Z,128.33
2022-09-24T17:05:02.400Z,85
2022-09-24T17:10:02.362Z,50
2022-09-24T17:15:03.410Z,25
2022-09-24T17:20:03.045Z,10
2022-09-24T17:25:03.093Z,8.83
2022-09-24T17:30:02.978Z,3.4
2022-09-24T17:35:03.147Z,1.25
2022-09-24T17:40:03.247Z,0.45
2022-09-24T17:45:02.755Z,0
2022-09-24T17:50:03.590Z,0
2022-09-24T17:55:03.970Z,0
2022-09-24T18:00:02.928Z,0
2022-09-24T18:05:03.572Z,0
2022-09-24T18:10:03.311Z,0
2022-09-24T18:15:02.972Z,0
2022-09-24T18:20:02.890Z,0
2022-09-24T18:25:03.532Z,0
2022-09-24T18:30:03.143Z,0
2022-09-24T18:35:02.728Z,0
2022-09-24T18:40:03.382Z,0
2022-09-24T18:45:03.293Z,0
2022-09-24T18:50:02.887Z,0
2022-09-24T18:55:03.785Z,0
2022-09-24T19:00:03.328Z,0
2022-09-24T19:05:02.963Z,0
2022-09-24T19:10:02.479Z,0
2022-09-24T19:15:03.137Z,0
2022-09-24T19:20:02.766Z,0
2022-09-24T19:25:02.364Z,0
2022-09-24T19:30:03.541Z,0
2022-09-24T19:35:03.111Z,0
2022-09-24T19:40:02.726Z,0
2022-09-24T19:45:03.487Z,0
2022-09-24T19:50:03.075Z,0
2022-09-24T19:55:03.739Z,0
2022-09-24T20:00:03.567Z,0
2022-09-24T20:05:03.064Z,0
2022-09-24T20:10:02.806Z,0
2022-09-24T20:15:02.668Z,0
2022-09-24T20:20:03.318Z,0
2022-09-24T20:25:02.909Z,0
2022-09-24T20:30:02.557Z,0
2022-09-24T20:35:03.251Z,0
2022-09-24T20:40:02.989Z,0
2022-09-24T20:45:06.743Z,0
2022-09-24T20:50:03.426Z,0
2022-09-24T20:55:04.207Z,0
2022-09-24T21:00:02.811Z,0
2022-09-24T21:05:02.479Z,0
2022-09-24T21:10:03.246Z,0
2022-09-24T21:15:02.895Z,0
2022-09-24T21:20:02.894Z,0
2022-09-24T21:25:02.710Z,0
2022-09-24T21:30:03.342Z,0
2022-09-24T21:35:02.963Z,0
2022-09-24T21:40:02.721Z,0
2022-09-24T21:45:03.427Z,0
2022-09-24T21:50:03.010Z,0
2022-09-24T21:55:03.654Z,0
2022-09-24T22:00:02.881Z,0
2022-09-24T22:05:03.360Z,0
2022-09-24T22:10:02.719Z,0
2022-09-24T22:15:03.565Z,0
2022-09-24T22:20:02.611Z,0
2022-09-24T22:25:03.642Z,0
2022-09-24T22:30:03.244Z,0
2022-09-24T22:35:02.882Z,0
2022-09-24T22:40:03.518Z,0
2022-09-24T22:45:03.202Z,0
2022-09-24T22:50:02.780Z,0
2022-09-24T22:55:04.660Z,0
2022-09-24T23:00:03.069Z,0
2022-09-24T23:05:02.882Z,0
2022-09-24T23:10:03.464Z,0
2022-09-24T23:15:03.150Z,0
2022-09-24T23:20:02.784Z,0
2022-09-24T23:25:03.441Z,0
2022-09-24T23:30:03.104Z,0
2022-09-24T23:35:02.700Z,0
2022-09-24T23:40:03.333Z,0
2022-09-24T23:45:02.751Z,0
2022-09-24T23:50:02.329Z,0
2022-09-24T23:55:04.678Z,0
